Seat Pleasant, Maryland
Current Conditions -  °F | °C
As of 4:58 PM on Friday 24 Oct 2014 (Local Time) from KADW Reporting Station
Clear Clear  
Wind Chill: 66°   Ceiling: Unl
Heat Index: 66°   Visibility: 10mi
Dew Point: 36°   Wind: 14mph
Humidity: 32%   Direction: 300°WNW
Pressure: 29.89"   Gusts: 21mph
Location:  38.8854°N, 76.8965°W
Report Text: KADW 242058Z AUTO 30012G18KT 10SM CLR 19/02 A2989 RMK AO2 SLP128 T01900021 56004 $
Loading
Personal Weather Stations






























Interactive Weather Map
Tropical Storm Tracking
New forecast layout! Learn more

10-Day Weather Forecast

Advertisements
Track Severe Weather on mobile